sensor_id;sensor_type;location;lat;lon;timestamp;P1;durP1;ratioP1;P2;durP2;ratioP2
45734;SDS011;31446;49.632;8.328;2023-07-20T00:09:21;3.83;;;1.17;;
45734;SDS011;31446;49.632;8.328;2023-07-20T00:24:27;8.35;;;1.30;;
45734;SDS011;31446;49.632;8.328;2023-07-20T00:39:33;9.10;;;1.55;;
45734;SDS011;31446;49.632;8.328;2023-07-20T00:54:40;3.20;;;1.73;;
45734;SDS011;31446;49.632;8.328;2023-07-20T01:09:48;13.23;;;2.10;;
45734;SDS011;31446;49.632;8.328;2023-07-20T01:25:05;8.90;;;2.00;;
45734;SDS011;31446;49.632;8.328;2023-07-20T01:40:21;4.38;;;1.88;;
45734;SDS011;31446;49.632;8.328;2023-07-20T01:55:28;10.98;;;2.85;;
45734;SDS011;31446;49.632;8.328;2023-07-20T02:10:34;2.92;;;2.20;;
45734;SDS011;31446;49.632;8.328;2023-07-20T02:25:42;4.75;;;2.15;;
45734;SDS011;31446;49.632;8.328;2023-07-20T02:40:48;4.28;;;2.00;;
45734;SDS011;31446;49.632;8.328;2023-07-20T02:55:54;9.50;;;2.35;;
45734;SDS011;31446;49.632;8.328;2023-07-20T03:11:00;2.67;;;1.90;;
45734;SDS011;31446;49.632;8.328;2023-07-20T03:26:06;5.88;;;2.22;;
45734;SDS011;31446;49.632;8.328;2023-07-20T03:41:12;8.43;;;2.03;;
45734;SDS011;31446;49.632;8.328;2023-07-20T03:56:19;7.78;;;2.38;;
45734;SDS011;31446;49.632;8.328;2023-07-20T04:11:25;2.97;;;1.85;;
45734;SDS011;31446;49.632;8.328;2023-07-20T04:26:31;14.23;;;3.35;;
45734;SDS011;31446;49.632;8.328;2023-07-20T04:41:38;6.47;;;2.65;;
45734;SDS011;31446;49.632;8.328;2023-07-20T04:56:44;13.52;;;2.40;;
45734;SDS011;31446;49.632;8.328;2023-07-20T05:11:50;8.55;;;2.22;;
45734;SDS011;31446;49.632;8.328;2023-07-20T05:26:57;4.43;;;1.90;;
45734;SDS011;31446;49.632;8.328;2023-07-20T05:42:03;5.10;;;1.88;;
45734;SDS011;31446;49.632;8.328;2023-07-20T05:57:10;8.35;;;1.75;;
45734;SDS011;31446;49.632;8.328;2023-07-20T06:12:16;5.65;;;1.45;;
45734;SDS011;31446;49.632;8.328;2023-07-20T06:27:22;5.53;;;1.92;;
45734;SDS011;31446;49.632;8.328;2023-07-20T06:42:28;3.83;;;1.40;;
45734;SDS011;31446;49.632;8.328;2023-07-20T06:57:35;4.88;;;1.98;;
45734;SDS011;31446;49.632;8.328;2023-07-20T07:12:41;3.10;;;1.90;;
45734;SDS011;31446;49.632;8.328;2023-07-20T07:27:47;5.30;;;1.30;;
45734;SDS011;31446;49.632;8.328;2023-07-20T07:42:54;3.25;;;1.52;;
45734;SDS011;31446;49.632;8.328;2023-07-20T07:58:00;6.13;;;2.00;;
45734;SDS011;31446;49.632;8.328;2023-07-20T08:13:06;9.18;;;1.50;;
45734;SDS011;31446;49.632;8.328;2023-07-20T08:28:13;4.05;;;1.45;;
45734;SDS011;31446;49.632;8.328;2023-07-20T08:43:20;7.45;;;1.13;;
45734;SDS011;31446;49.632;8.328;2023-07-20T08:58:29;4.50;;;1.67;;
45734;SDS011;31446;49.632;8.328;2023-07-20T09:13:37;2.60;;;1.20;;
45734;SDS011;31446;49.632;8.328;2023-07-20T09:28:47;4.28;;;1.60;;
45734;SDS011;31446;49.632;8.328;2023-07-20T09:43:54;4.65;;;1.02;;
45734;SDS011;31446;49.632;8.328;2023-07-20T09:59:00;8.03;;;1.17;;
45734;SDS011;31446;49.632;8.328;2023-07-20T10:14:06;2.53;;;0.77;;
45734;SDS011;31446;49.632;8.328;2023-07-20T10:29:14;1.80;;;0.80;;
45734;SDS011;31446;49.632;8.328;2023-07-20T10:44:22;2.83;;;1.00;;
45734;SDS011;31446;49.632;8.328;2023-07-20T10:59:38;1.03;;;0.90;;
45734;SDS011;31446;49.632;8.328;2023-07-20T11:14:53;5.03;;;1.30;;
45734;SDS011;31446;49.632;8.328;2023-07-20T11:30:01;1.90;;;0.97;;
45734;SDS011;31446;49.632;8.328;2023-07-20T11:45:08;8.90;;;1.73;;
45734;SDS011;31446;49.632;8.328;2023-07-20T12:00:15;2.47;;;1.23;;
45734;SDS011;31446;49.632;8.328;2023-07-20T12:15:23;3.90;;;1.00;;
45734;SDS011;31446;49.632;8.328;2023-07-20T12:30:32;3.43;;;1.10;;
45734;SDS011;31446;49.632;8.328;2023-07-20T12:45:38;2.33;;;1.03;;
45734;SDS011;31446;49.632;8.328;2023-07-20T13:00:45;7.17;;;1.43;;
45734;SDS011;31446;49.632;8.328;2023-07-20T13:15:51;1.03;;;0.90;;
45734;SDS011;31446;49.632;8.328;2023-07-20T13:30:57;5.13;;;1.20;;
45734;SDS011;31446;49.632;8.328;2023-07-20T13:46:03;4.10;;;1.03;;
45734;SDS011;31446;49.632;8.328;2023-07-20T14:01:09;3.80;;;1.23;;
45734;SDS011;31446;49.632;8.328;2023-07-20T14:16:15;3.20;;;1.00;;
45734;SDS011;31446;49.632;8.328;2023-07-20T14:31:21;2.67;;;1.13;;
45734;SDS011;31446;49.632;8.328;2023-07-20T14:46:28;3.70;;;1.27;;
45734;SDS011;31446;49.632;8.328;2023-07-20T15:01:34;1.57;;;1.10;;
45734;SDS011;31446;49.632;8.328;2023-07-20T15:16:41;2.83;;;1.00;;
45734;SDS011;31446;49.632;8.328;2023-07-20T15:31:47;4.07;;;1.03;;
45734;SDS011;31446;49.632;8.328;2023-07-20T15:46:53;4.20;;;1.23;;
45734;SDS011;31446;49.632;8.328;2023-07-20T16:02:00;5.47;;;1.20;;
45734;SDS011;31446;49.632;8.328;2023-07-20T16:17:08;1.07;;;1.00;;
45734;SDS011;31446;49.632;8.328;2023-07-20T16:32:14;6.17;;;1.10;;
45734;SDS011;31446;49.632;8.328;2023-07-20T16:47:20;3.80;;;1.90;;
45734;SDS011;31446;49.632;8.328;2023-07-20T17:02:27;7.33;;;1.43;;
45734;SDS011;31446;49.632;8.328;2023-07-20T17:17:34;8.37;;;1.70;;
45734;SDS011;31446;49.632;8.328;2023-07-20T17:32:40;4.17;;;1.77;;
45734;SDS011;31446;49.632;8.328;2023-07-20T17:47:46;4.90;;;1.00;;
45734;SDS011;31446;49.632;8.328;2023-07-20T18:02:53;1.67;;;1.23;;
45734;SDS011;31446;49.632;8.328;2023-07-20T18:17:59;1.65;;;1.27;;
45734;SDS011;31446;49.632;8.328;2023-07-20T18:33:06;2.95;;;1.80;;
45734;SDS011;31446;49.632;8.328;2023-07-20T18:48:12;7.93;;;1.70;;
45734;SDS011;31446;49.632;8.328;2023-07-20T19:03:18;4.90;;;1.50;;
45734;SDS011;31446;49.632;8.328;2023-07-20T19:18:25;8.32;;;1.55;;
45734;SDS011;31446;49.632;8.328;2023-07-20T19:33:31;5.18;;;1.17;;
45734;SDS011;31446;49.632;8.328;2023-07-20T19:48:37;1.88;;;1.48;;
45734;SDS011;31446;49.632;8.328;2023-07-20T20:03:43;7.90;;;1.58;;
45734;SDS011;31446;49.632;8.328;2023-07-20T20:18:49;12.23;;;1.27;;
45734;SDS011;31446;49.632;8.328;2023-07-20T20:33:55;2.22;;;1.38;;
45734;SDS011;31446;49.632;8.328;2023-07-20T20:49:02;5.15;;;1.60;;
45734;SDS011;31446;49.632;8.328;2023-07-20T21:04:09;11.27;;;2.20;;
45734;SDS011;31446;49.632;8.328;2023-07-20T21:19:15;3.25;;;1.60;;
45734;SDS011;31446;49.632;8.328;2023-07-20T21:34:21;3.15;;;1.80;;
45734;SDS011;31446;49.632;8.328;2023-07-20T21:49:27;3.60;;;1.52;;
45734;SDS011;31446;49.632;8.328;2023-07-20T22:04:33;3.08;;;1.30;;
45734;SDS011;31446;49.632;8.328;2023-07-20T22:19:40;3.13;;;1.58;;
45734;SDS011;31446;49.632;8.328;2023-07-20T22:34:47;7.05;;;2.10;;
45734;SDS011;31446;49.632;8.328;2023-07-20T22:49:53;7.93;;;1.80;;
45734;SDS011;31446;49.632;8.328;2023-07-20T23:05:00;5.63;;;1.95;;
45734;SDS011;31446;49.632;8.328;2023-07-20T23:20:07;3.67;;;2.20;;
45734;SDS011;31446;49.632;8.328;2023-07-20T23:35:20;3.70;;;1.80;;
45734;SDS011;31446;49.632;8.328;2023-07-20T23:50:26;5.55;;;2.03;;
